Time;durP1;ratioP1;P1;durP2;ratioP2;P2;SDS_P1;SDS_P2;PMS_P1;PMS_P2;Temp;Humidity;BMP_temperature;BMP_pressure;BME280_temperature;BME280_humidity;BME280_pressure;Samples;Min_cycle;Max_cycle;Signal;HPM_P1;HPM_P2
2023/07/06 00:01:50;;;;;;;10.38;4.82;;;;;;;;;;4801229;29;20503;-73
2023/07/06 00:04:21;;;;;;;13.00;4.40;;;;;;;;;;4816932;29;20057;-74
2023/07/06 00:06:53;;;;;;;11.57;3.78;;;;;;;;;;4816661;29;20058;-74
2023/07/06 00:09:24;;;;;;;7.78;4.20;;;;;;;;;;4815927;29;20073;-73
2023/07/06 00:11:55;;;;;;;11.63;4.35;;;;;;;;;;4815512;29;20549;-74
2023/07/06 00:14:26;;;;;;;8.93;4.30;;;;;;;;;;4816796;29;20058;-74
2023/07/06 00:17:14;;;;;;;11.65;4.88;;;;;;;;;;4799325;29;20065;-73
2023/07/06 00:19:47;;;;;;;9.32;4.85;;;;;;;;;;4816780;29;20062;-74
2023/07/06 00:22:18;;;;;;;13.07;5.22;;;;;;;;;;4816548;29;20061;-74
2023/07/06 00:24:48;;;;;;;18.08;5.35;;;;;;;;;;4816766;29;21211;-73
2023/07/06 00:27:20;;;;;;;14.23;5.38;;;;;;;;;;4816359;29;20558;-73
2023/07/06 00:30:07;;;;;;;12.68;6.35;;;;;;;;;;4815487;29;20446;-74
2023/07/06 00:32:37;;;;;;;8.23;6.00;;;;;;;;;;4815725;29;20046;-73
2023/07/06 00:35:10;;;;;;;11.65;5.57;;;;;;;;;;4815112;29;20054;-73
2023/07/06 00:37:43;;;;;;;11.70;5.47;;;;;;;;;;4799543;29;20062;-72
2023/07/06 00:40:14;;;;;;;13.95;6.07;;;;;;;;;;4815350;29;20890;-72
2023/07/06 00:42:44;;;;;;;13.40;5.95;;;;;;;;;;4798644;29;20426;-75
2023/07/06 00:45:15;;;;;;;15.60;5.93;;;;;;;;;;4815848;29;20422;-72
2023/07/06 00:47:56;;;;;;;15.60;5.82;;;;;;;;;;4816776;29;20395;-72
2023/07/06 00:50:30;;;;;;;8.50;5.00;;;;;;;;;;4816303;29;20050;-72
2023/07/06 00:53:07;;;;;;;11.27;4.53;;;;;;;;;;4815173;29;20058;-73
2023/07/06 00:55:41;;;;;;;11.00;4.93;;;;;;;;;;4816152;29;20054;-72
2023/07/06 00:58:27;;;;;;;8.77;5.28;;;;;;;;;;4823122;29;20058;-73
2023/07/06 01:01:03;;;;;;;10.77;5.82;;;;;;;;;;4816099;29;20054;-74
2023/07/06 01:03:43;;;;;;;11.15;5.22;;;;;;;;;;4834115;29;20053;-74
2023/07/06 01:06:23;;;;;;;7.82;5.35;;;;;;;;;;4834221;29;20057;-73
2023/07/06 01:08:57;;;;;;;11.25;4.97;;;;;;;;;;4817966;29;20054;-73
2023/07/06 01:11:28;;;;;;;12.07;6.60;;;;;;;;;;4833697;29;20045;-74
2023/07/06 01:14:00;;;;;;;13.02;6.18;;;;;;;;;;4830749;29;20050;-74
2023/07/06 01:16:43;;;;;;;16.27;6.47;;;;;;;;;;4815481;29;20423;-74
2023/07/06 01:19:20;;;;;;;;;;;;;;;;;;4832438;29;20533;-73
2023/07/06 01:22:24;;;;;;;14.95;6.35;;;;;;;;;;4831934;29;19935;-74
2023/07/06 01:25:12;;;;;;;18.08;6.88;;;;;;;;;;4832069;29;20065;-74
2023/07/06 01:27:55;;;;;;;14.57;6.65;;;;;;;;;;4832627;29;20062;-74
2023/07/06 01:30:54;;;;;;;10.00;6.72;;;;;;;;;;4833840;29;20061;-74
2023/07/06 01:33:36;;;;;;;12.63;6.50;;;;;;;;;;4801338;29;20545;-73
2023/07/06 01:36:26;;;;;;;;;;;;;;;;;;4834412;29;20073;-74
2023/07/06 01:39:16;;;;;;;8.75;6.30;;;;;;;;;;4833888;29;19935;-74
2023/07/06 01:42:12;;;;;;;12.48;6.47;;;;;;;;;;4817343;29;20506;-74
2023/07/06 01:44:49;;;;;;;12.32;6.15;;;;;;;;;;4834009;29;20056;-74
2023/07/06 01:47:20;;;;;;;13.27;7.68;;;;;;;;;;4833489;29;20054;-74
2023/07/06 01:49:51;;;;;;;11.60;6.75;;;;;;;;;;4816573;29;20073;-74
2023/07/06 01:52:46;;;;;;;13.55;7.13;;;;;;;;;;4818352;29;20053;-74
2023/07/06 01:55:29;;;;;;;9.05;5.88;;;;;;;;;;4834283;29;20062;-74
2023/07/06 01:58:23;;;;;;;12.07;6.38;;;;;;;;;;4816474;29;20065;-74
2023/07/06 02:01:02;;;;;;;9.80;5.43;;;;;;;;;;4816928;29;20062;-74
2023/07/06 02:03:36;;;;;;;13.73;6.50;;;;;;;;;;4817528;29;20073;-74
2023/07/06 02:06:08;;;;;;;15.35;6.70;;;;;;;;;;4819909;29;20092;-74
2023/07/06 02:08:41;;;;;;;12.65;6.38;;;;;;;;;;4820764;29;20062;-75
2023/07/06 02:11:20;;;;;;;12.38;6.60;;;;;;;;;;4837333;29;20395;-74
2023/07/06 02:13:52;;;;;;;11.27;6.60;;;;;;;;;;4820648;29;20061;-75
2023/07/06 02:16:22;;;;;;;12.80;6.97;;;;;;;;;;4820448;29;20090;-74
2023/07/06 02:18:55;;;;;;;12.48;6.72;;;;;;;;;;4837017;29;20053;-74
2023/07/06 02:21:26;;;;;;;9.40;5.40;;;;;;;;;;4819443;29;20544;-74
2023/07/06 02:23:57;;;;;;;18.38;5.82;;;;;;;;;;4836990;29;20064;-75
2023/07/06 02:26:27;;;;;;;10.25;5.65;;;;;;;;;;4820898;29;20053;-74
2023/07/06 02:29:00;;;;;;;9.88;6.13;;;;;;;;;;4837240;29;20486;-74
2023/07/06 02:31:34;;;;;;;10.38;5.85;;;;;;;;;;4836840;29;20061;-74
2023/07/06 02:34:05;;;;;;;11.23;7.15;;;;;;;;;;4819679;29;20526;-74
2023/07/06 02:36:37;;;;;;;12.77;7.32;;;;;;;;;;4836953;29;20509;-74
2023/07/06 02:39:07;;;;;;;11.52;6.00;;;;;;;;;;4836774;29;20133;-74
2023/07/06 02:41:38;;;;;;;8.18;5.25;;;;;;;;;;4836379;29;20042;-74
2023/07/06 02:44:09;;;;;;;10.38;6.50;;;;;;;;;;4836718;29;20406;-74
2023/07/06 02:46:39;;;;;;;10.30;5.97;;;;;;;;;;4837033;29;20064;-75
2023/07/06 02:49:09;;;;;;;11.70;6.38;;;;;;;;;;4836526;29;20045;-74
2023/07/06 02:51:40;;;;;;;13.10;6.45;;;;;;;;;;4836285;29;20054;-74
2023/07/06 02:54:15;;;;;;;9.07;6.13;;;;;;;;;;4835873;29;20057;-74
2023/07/06 02:56:47;;;;;;;9.65;6.28;;;;;;;;;;4836519;29;20510;-74
2023/07/06 02:59:18;;;;;;;9.10;5.88;;;;;;;;;;4836423;29;20058;-74
2023/07/06 03:01:49;;;;;;;9.82;5.72;;;;;;;;;;4836163;29;20061;-74
2023/07/06 03:04:21;;;;;;;10.00;5.50;;;;;;;;;;4836166;29;20065;-74
2023/07/06 03:06:51;;;;;;;8.80;5.63;;;;;;;;;;4836147;29;20046;-74
2023/07/06 03:09:22;;;;;;;12.15;6.03;;;;;;;;;;4819277;29;20521;-74
2023/07/06 03:11:54;;;;;;;7.45;5.32;;;;;;;;;;4819204;29;20065;-75
2023/07/06 03:14:25;;;;;;;10.43;5.25;;;;;;;;;;4836172;29;20533;-74
2023/07/06 03:16:56;;;;;;;8.55;5.40;;;;;;;;;;4817936;29;20503;-74
2023/07/06 03:19:27;;;;;;;8.20;5.10;;;;;;;;;;4836578;29;20054;-74
2023/07/06 03:21:58;;;;;;;10.13;5.32;;;;;;;;;;4835690;29;20041;-74
2023/07/06 03:24:30;;;;;;;15.55;5.70;;;;;;;;;;4835541;29;20741;-74
2023/07/06 03:27:02;;;;;;;10.13;5.38;;;;;;;;;;4836019;29;20054;-74
2023/07/06 03:29:35;;;;;;;12.45;5.85;;;;;;;;;;4834527;29;20514;-73
2023/07/06 03:32:06;;;;;;;10.98;5.88;;;;;;;;;;4835392;29;20049;-74
2023/07/06 03:34:38;;;;;;;10.70;5.35;;;;;;;;;;4835936;29;20050;-74
2023/07/06 03:37:08;;;;;;;9.75;6.05;;;;;;;;;;4835968;29;20042;-75
2023/07/06 03:39:38;;;;;;;11.10;4.82;;;;;;;;;;4835541;29;20054;-74
2023/07/06 03:42:09;;;;;;;11.23;6.07;;;;;;;;;;4835063;29;20557;-74
2023/07/06 03:44:40;;;;;;;12.07;5.20;;;;;;;;;;4819458;29;20058;-74
2023/07/06 03:47:10;;;;;;;9.45;5.85;;;;;;;;;;4818750;29;20459;-73
2023/07/06 03:49:41;;;;;;;10.80;5.57;;;;;;;;;;4835457;29;20077;-74
2023/07/06 03:52:13;;;;;;;11.27;5.95;;;;;;;;;;4835554;29;20069;-74
2023/07/06 03:54:47;;;;;;;14.52;5.80;;;;;;;;;;4834549;29;20053;-73
2023/07/06 03:57:18;;;;;;;12.90;5.60;;;;;;;;;;4818901;29;20058;-73
2023/07/06 03:59:48;;;;;;;10.43;5.22;;;;;;;;;;4818103;29;20057;-74
2023/07/06 04:02:20;;;;;;;10.57;6.43;;;;;;;;;;4835613;29;20045;-73
2023/07/06 04:04:52;;;;;;;11.85;5.65;;;;;;;;;;4834625;29;20529;-73
2023/07/06 04:07:22;;;;;;;10.98;6.47;;;;;;;;;;4818311;29;20426;-73
2023/07/06 04:09:53;;;;;;;13.88;5.82;;;;;;;;;;4835608;29;20065;-73
2023/07/06 04:12:24;;;;;;;12.70;5.85;;;;;;;;;;4835208;29;20046;-74
2023/07/06 04:14:56;;;;;;;10.18;5.30;;;;;;;;;;4833996;29;20053;-73
2023/07/06 04:17:26;;;;;;;14.10;6.00;;;;;;;;;;4834346;29;20050;-73
2023/07/06 04:19:58;;;;;;;13.13;5.25;;;;;;;;;;4835038;29;20061;-73
2023/07/06 04:22:29;;;;;;;8.70;6.10;;;;;;;;;;4835069;29;20046;-74
2023/07/06 04:25:01;;;;;;;7.78;5.22;;;;;;;;;;4834303;29;20054;-74
2023/07/06 04:27:31;;;;;;;8.45;5.35;;;;;;;;;;4834311;29;20046;-74
2023/07/06 04:30:01;;;;;;;13.23;5.05;;;;;;;;;;4834252;29;20062;-74
2023/07/06 04:32:33;;;;;;;7.53;4.65;;;;;;;;;;4834613;29;20038;-74
2023/07/06 04:35:06;;;;;;;13.02;5.22;;;;;;;;;;4834327;29;20061;-74
2023/07/06 04:37:36;;;;;;;7.28;4.70;;;;;;;;;;4834563;29;20054;-74
2023/07/06 04:40:17;;;;;;;9.30;5.07;;;;;;;;;;4834477;29;20056;-74
2023/07/06 04:42:51;;;;;;;9.85;5.57;;;;;;;;;;4834655;29;20058;-73
2023/07/06 04:45:26;;;;;;;6.57;5.00;;;;;;;;;;4833308;29;20542;-73
2023/07/06 04:48:00;;;;;;;10.27;5.43;;;;;;;;;;4834548;29;20058;-74
2023/07/06 04:50:31;;;;;;;9.77;5.38;;;;;;;;;;4834606;29;20058;-74
2023/07/06 04:53:02;;;;;;;11.02;6.03;;;;;;;;;;4834422;29;20054;-74
2023/07/06 04:55:34;;;;;;;8.93;5.93;;;;;;;;;;4834377;29;20060;-73
2023/07/06 04:58:05;;;;;;;9.63;4.68;;;;;;;;;;4834427;29;20050;-74
2023/07/06 05:00:45;;;;;;;9.02;5.18;;;;;;;;;;4834303;29;20062;-73
2023/07/06 05:03:17;;;;;;;8.07;5.40;;;;;;;;;;4833435;29;20053;-74
2023/07/06 05:05:48;;;;;;;10.27;4.72;;;;;;;;;;4833326;29;20613;-73
2023/07/06 05:08:21;;;;;;;7.93;4.80;;;;;;;;;;4833968;29;20050;-74
2023/07/06 05:10:52;;;;;;;11.20;4.95;;;;;;;;;;4834546;29;20057;-74
2023/07/06 05:13:23;;;;;;;7.95;5.00;;;;;;;;;;4834758;29;20053;-74
2023/07/06 05:15:55;;;;;;;11.40;5.30;;;;;;;;;;4833932;29;20061;-73
2023/07/06 05:18:26;;;;;;;9.48;4.90;;;;;;;;;;4834563;29;20103;-73
2023/07/06 05:20:57;;;;;;;7.53;4.95;;;;;;;;;;4834101;29;20411;-73
2023/07/06 05:23:28;;;;;;;7.30;4.78;;;;;;;;;;4833890;29;20054;-73
2023/07/06 05:26:03;;;;;;;10.73;5.20;;;;;;;;;;4833503;29;20061;-74
2023/07/06 05:28:34;;;;;;;8.43;4.55;;;;;;;;;;4834063;29;20052;-74
2023/07/06 05:31:04;;;;;;;7.43;4.05;;;;;;;;;;4834076;29;20061;-74
2023/07/06 05:33:35;;;;;;;7.68;4.00;;;;;;;;;;4818047;29;20050;-74
2023/07/06 05:36:06;;;;;;;8.07;4.68;;;;;;;;;;4817068;29;20058;-73
2023/07/06 05:38:37;;;;;;;7.97;4.93;;;;;;;;;;4833532;29;20222;-74
2023/07/06 05:41:07;;;;;;;9.80;3.97;;;;;;;;;;4837526;29;20233;-73
2023/07/06 05:43:37;;;;;;;7.47;4.25;;;;;;;;;;4837918;29;20540;-74
2023/07/06 05:46:08;;;;;;;6.85;4.05;;;;;;;;;;4837662;29;20078;-73
2023/07/06 05:48:39;;;;;;;7.90;4.43;;;;;;;;;;4837570;29;20077;-74
2023/07/06 05:51:10;;;;;;;15.07;4.90;;;;;;;;;;4820769;29;20434;-73
2023/07/06 05:53:40;;;;;;;7.65;4.57;;;;;;;;;;4837234;29;20422;-74
2023/07/06 05:56:10;;;;;;;;;;;;;;;;;;4838062;29;20054;-74
2023/07/06 05:58:41;;;;;;;7.50;3.42;;;;;;;;;;4837517;29;19928;-74
2023/07/06 06:01:12;;;;;;;10.35;4.60;;;;;;;;;;4837197;29;20050;-74
2023/07/06 06:03:42;;;;;;;5.95;4.43;;;;;;;;;;4836968;29;20038;-73
2023/07/06 06:06:12;;;;;;;8.00;4.55;;;;;;;;;;4836891;29;20498;-73
2023/07/06 06:08:43;;;;;;;11.75;6.78;;;;;;;;;;4837114;29;20415;-73
2023/07/06 06:11:15;;;;;;;5.60;4.13;;;;;;;;;;4836904;29;20058;-73
2023/07/06 06:13:47;;;;;;;7.22;5.18;;;;;;;;;;4837054;29;20421;-73
2023/07/06 06:16:18;;;;;;;7.43;4.60;;;;;;;;;;4836432;29;20625;-74
2023/07/06 06:18:48;;;;;;;8.85;4.10;;;;;;;;;;4837072;29;20062;-73
2023/07/06 06:21:19;;;;;;;6.60;4.60;;;;;;;;;;4837506;29;21248;-74
2023/07/06 06:23:52;;;;;;;11.10;4.43;;;;;;;;;;4836403;29;20061;-73
2023/07/06 06:26:23;;;;;;;11.15;4.65;;;;;;;;;;4836709;29;20061;-73
2023/07/06 06:28:59;;;;;;;8.55;4.60;;;;;;;;;;4836692;29;20128;-73
2023/07/06 06:31:32;;;;;;;6.95;4.63;;;;;;;;;;4836570;29;20367;-73
2023/07/06 06:34:04;;;;;;;10.55;4.60;;;;;;;;;;4836661;29;20060;-73
2023/07/06 06:36:34;;;;;;;10.73;4.43;;;;;;;;;;4836895;29;20054;-74
2023/07/06 06:39:04;;;;;;;10.30;4.40;;;;;;;;;;4836599;29;20070;-72
2023/07/06 06:41:38;;;;;;;6.22;4.25;;;;;;;;;;4836448;29;20050;-74
2023/07/06 06:44:11;;;;;;;8.70;4.53;;;;;;;;;;4819606;29;20054;-74
2023/07/06 06:46:41;;;;;;;7.00;4.57;;;;;;;;;;4836468;29;20529;-74
2023/07/06 06:49:12;;;;;;;8.80;4.95;;;;;;;;;;4836602;29;20426;-73
2023/07/06 06:51:43;;;;;;;7.40;4.35;;;;;;;;;;4835498;29;20050;-73
2023/07/06 06:54:14;;;;;;;10.15;5.00;;;;;;;;;;4836761;29;20529;-73
2023/07/06 06:56:44;;;;;;;8.25;5.28;;;;;;;;;;4837188;29;20054;-73
2023/07/06 06:59:14;;;;;;;16.67;5.53;;;;;;;;;;4836191;29;20065;-74
2023/07/06 07:01:44;;;;;;;9.45;5.07;;;;;;;;;;4835877;29;20060;-74
2023/07/06 07:04:15;;;;;;;7.93;4.40;;;;;;;;;;4835636;29;20058;-73
2023/07/06 07:06:47;;;;;;;11.00;4.65;;;;;;;;;;4835936;29;20053;-72
2023/07/06 07:09:17;;;;;;;7.68;3.90;;;;;;;;;;4835808;29;20050;-73
2023/07/06 07:11:48;;;;;;;8.77;4.72;;;;;;;;;;4836089;29;20060;-73
2023/07/06 07:14:17;;;;;;;;;;;;;;;;;;4836609;29;20053;-73
2023/07/06 07:16:49;;;;;;;7.80;4.55;;;;;;;;;;4836350;29;19929;-73
2023/07/06 07:19:21;;;;;;;7.50;4.32;;;;;;;;;;4835761;29;20759;-73
2023/07/06 07:21:51;;;;;;;6.60;3.72;;;;;;;;;;4835878;29;20054;-73
2023/07/06 07:24:29;;;;;;;5.97;4.20;;;;;;;;;;4835546;29;20062;-73
2023/07/06 07:27:02;;;;;;;6.72;4.88;;;;;;;;;;4836144;29;20510;-74
2023/07/06 07:29:33;;;;;;;7.20;4.63;;;;;;;;;;4835839;29;20042;-73
2023/07/06 07:32:05;;;;;;;7.50;4.60;;;;;;;;;;4836138;29;20050;-73
2023/07/06 07:34:35;;;;;;;11.48;4.82;;;;;;;;;;4835462;29;20054;-74
2023/07/06 07:37:10;;;;;;;9.13;4.95;;;;;;;;;;4835514;29;20056;-74
2023/07/06 07:39:41;;;;;;;10.90;4.80;;;;;;;;;;4834862;29;20049;-73
2023/07/06 07:42:12;;;;;;;6.70;4.13;;;;;;;;;;4835532;29;20050;-73
2023/07/06 07:44:44;;;;;;;7.07;3.70;;;;;;;;;;4835731;29;20072;-73
2023/07/06 07:47:21;;;;;;;7.18;4.10;;;;;;;;;;4835902;29;20616;-73
2023/07/06 07:49:51;;;;;;;8.60;3.92;;;;;;;;;;4834919;29;20050;-73
2023/07/06 07:52:22;;;;;;;6.90;3.92;;;;;;;;;;4835263;29;20050;-73
2023/07/06 07:54:53;;;;;;;6.55;3.63;;;;;;;;;;4834882;29;20056;-74
2023/07/06 07:57:24;;;;;;;6.53;4.32;;;;;;;;;;4834982;29;20054;-73
2023/07/06 07:59:54;;;;;;;;;;;;;;;;;;4835579;29;20061;-72
2023/07/06 08:02:25;;;;;;;8.02;3.70;;;;;;;;;;4835105;29;20355;-73
2023/07/06 08:04:57;;;;;;;6.45;4.53;;;;;;;;;;4835313;29;20054;-73
2023/07/06 08:07:29;;;;;;;7.97;3.83;;;;;;;;;;4835107;29;20533;-73
2023/07/06 08:09:59;;;;;;;7.57;4.72;;;;;;;;;;4835471;29;20053;-73
2023/07/06 08:12:31;;;;;;;7.10;4.43;;;;;;;;;;4835113;29;20503;-73
2023/07/06 08:15:02;;;;;;;6.25;3.83;;;;;;;;;;4834667;29;20050;-73
2023/07/06 08:17:33;;;;;;;8.25;4.82;;;;;;;;;;4835130;29;20064;-74
2023/07/06 08:20:06;;;;;;;6.95;4.18;;;;;;;;;;4835049;29;20510;-73
2023/07/06 08:22:57;;;;;;;7.43;4.10;;;;;;;;;;4834548;29;20426;-73
2023/07/06 08:25:28;;;;;;;9.45;3.95;;;;;;;;;;4834196;29;20057;-73
2023/07/06 08:28:01;;;;;;;11.10;4.10;;;;;;;;;;4817854;29;20058;-73
2023/07/06 08:30:32;;;;;;;5.63;4.07;;;;;;;;;;4834770;29;20057;-73
2023/07/06 08:33:04;;;;;;;8.80;4.13;;;;;;;;;;4817689;29;20057;-73
2023/07/06 08:35:35;;;;;;;6.25;4.43;;;;;;;;;;4834378;29;20050;-73
2023/07/06 08:38:06;;;;;;;10.80;4.95;;;;;;;;;;4834593;29;20049;-73
2023/07/06 08:40:37;;;;;;;10.15;4.38;;;;;;;;;;4817651;29;20085;-73
2023/07/06 08:43:18;;;;;;;11.35;5.22;;;;;;;;;;4834312;29;20054;-73
2023/07/06 08:45:56;;;;;;;11.60;4.43;;;;;;;;;;4834660;29;20062;-73
2023/07/06 08:48:30;;;;;;;6.35;4.15;;;;;;;;;;4834238;29;20057;-72
2023/07/06 08:51:22;;;;;;;5.65;4.45;;;;;;;;;;4818328;29;20061;-72
2023/07/06 08:54:00;;;;;;;6.13;4.10;;;;;;;;;;4834448;29;20073;-73
2023/07/06 08:56:36;;;;;;;7.93;4.57;;;;;;;;;;4833999;29;20069;-73
2023/07/06 08:59:29;;;;;;;9.90;4.18;;;;;;;;;;4834268;29;20045;-74
2023/07/06 09:02:22;;;;;;;7.53;4.03;;;;;;;;;;4834229;29;20053;-74
2023/07/06 09:04:56;;;;;;;8.77;4.18;;;;;;;;;;4834273;29;20057;-73
2023/07/06 09:07:35;;;;;;;6.75;4.05;;;;;;;;;;4834577;29;20949;-73
2023/07/06 09:10:20;;;;;;;8.88;4.18;;;;;;;;;;4834595;29;20521;-73
2023/07/06 09:12:56;;;;;;;6.68;4.13;;;;;;;;;;4834054;29;20438;-73
2023/07/06 09:15:29;;;;;;;6.20;3.63;;;;;;;;;;4832751;29;20061;-73
2023/07/06 09:18:02;;;;;;;5.95;3.95;;;;;;;;;;4833218;29;20085;-73
2023/07/06 09:20:35;;;;;;;5.03;3.45;;;;;;;;;;4834480;29;20049;-74
2023/07/06 09:23:06;;;;;;;8.05;3.72;;;;;;;;;;4834511;29;20046;-78
2023/07/06 09:25:42;;;;;;;7.88;3.42;;;;;;;;;;4833997;29;20041;-73
2023/07/06 09:28:26;;;;;;;8.25;4.50;;;;;;;;;;4833905;29;20053;-73
2023/07/06 09:31:15;;;;;;;7.40;4.43;;;;;;;;;;4834022;29;20422;-73
2023/07/06 09:33:49;;;;;;;8.80;4.97;;;;;;;;;;4834067;29;20054;-73
2023/07/06 09:36:25;;;;;;;7.38;3.65;;;;;;;;;;4833568;29;20052;-73
2023/07/06 09:39:09;;;;;;;9.07;3.83;;;;;;;;;;4834061;29;20065;-74
2023/07/06 09:41:44;;;;;;;6.63;4.75;;;;;;;;;;4834163;29;20058;-73
2023/07/06 09:44:29;;;;;;;8.20;4.38;;;;;;;;;;4833675;29;20084;-74
2023/07/06 09:47:01;;;;;;;5.68;3.88;;;;;;;;;;4833994;29;20077;-73
2023/07/06 09:49:57;;;;;;;8.40;4.60;;;;;;;;;;4834517;29;20430;-74
2023/07/06 09:52:29;;;;;;;7.28;4.05;;;;;;;;;;4834183;29;20050;-73
2023/07/06 09:55:32;;;;;;;5.57;3.90;;;;;;;;;;4833335;29;20054;-74
2023/07/06 09:58:02;;;;;;;5.75;3.65;;;;;;;;;;4832513;29;20066;-78
2023/07/06 10:00:39;;;;;;;6.60;4.00;;;;;;;;;;4833461;29;20049;-74
2023/07/06 10:03:34;;;;;;;8.18;4.63;;;;;;;;;;4833424;29;20058;-73
2023/07/06 10:06:42;;;;;;;9.43;4.53;;;;;;;;;;4833739;29;20057;-73
2023/07/06 10:09:20;;;;;;;;;;;;;;;;;;4834476;29;20050;-76
2023/07/06 10:11:53;;;;;;;7.40;3.65;;;;;;;;;;4834023;29;19930;-73
2023/07/06 10:14:47;;;;;;;8.18;3.83;;;;;;;;;;4834370;29;20502;-74
2023/07/06 10:17:37;;;;;;;7.60;4.88;;;;;;;;;;4833902;29;20053;-72
2023/07/06 10:20:19;;;;;;;11.02;4.38;;;;;;;;;;4833472;29;20387;-74
2023/07/06 10:23:10;;;;;;;7.68;4.60;;;;;;;;;;4833622;29;20061;-74
2023/07/06 10:25:58;;;;;;;9.48;4.38;;;;;;;;;;4780646;29;20066;-73
2023/07/06 10:28:39;;;;;;;9.10;4.68;;;;;;;;;;4782869;29;20058;-75
2023/07/06 10:31:16;;;;;;;10.73;4.72;;;;;;;;;;4782496;30;20531;-72
2023/07/06 10:34:02;;;;;;;9.43;4.50;;;;;;;;;;4782386;30;20446;-72
2023/07/06 10:36:34;;;;;;;7.07;4.20;;;;;;;;;;4782226;30;20536;-77
2023/07/06 10:39:47;;;;;;;8.98;5.18;;;;;;;;;;4782221;30;20055;-73
2023/07/06 10:42:33;;;;;;;9.95;4.72;;;;;;;;;;4782212;30;20058;-72
2023/07/06 10:45:20;;;;;;;10.60;3.83;;;;;;;;;;4782527;30;20066;-72
2023/07/06 10:47:50;;;;;;;6.93;3.92;;;;;;;;;;4780899;30;20074;-73
2023/07/06 10:50:25;;;;;;;8.95;4.15;;;;;;;;;;4782489;30;20480;-72
2023/07/06 10:53:03;;;;;;;24.63;5.15;;;;;;;;;;4781854;30;20059;-77
2023/07/06 10:55:37;;;;;;;8.52;4.35;;;;;;;;;;4781886;30;20051;-73
2023/07/06 10:58:28;;;;;;;9.35;4.05;;;;;;;;;;4782710;30;20052;-72
2023/07/06 11:01:05;;;;;;;11.57;4.90;;;;;;;;;;4781651;30;20051;-73
2023/07/06 11:03:38;;;;;;;7.55;4.70;;;;;;;;;;4782030;30;20047;-72
2023/07/06 11:06:14;;;;;;;15.43;10.10;;;;;;;;;;4782249;30;20420;-72
2023/07/06 11:09:07;;;;;;;50.67;22.55;;;;;;;;;;4781863;30;20832;-73
2023/07/06 11:11:51;;;;;;;22.45;11.13;;;;;;;;;;4781654;30;20062;-72
2023/07/06 11:14:37;;;;;;;28.30;15.35;;;;;;;;;;4781779;30;20051;-73
2023/07/06 11:17:37;;;;;;;20.45;11.55;;;;;;;;;;4781716;30;20539;-72
2023/07/06 11:20:27;;;;;;;20.50;10.75;;;;;;;;;;4781403;30;20063;-73
2023/07/06 11:23:04;;;;;;;16.83;9.65;;;;;;;;;;4780604;30;20059;-73
2023/07/06 11:25:39;;;;;;;12.25;8.27;;;;;;;;;;4781169;30;20055;-73
2023/07/06 11:28:22;;;;;;;16.73;8.93;;;;;;;;;;4781147;29;20051;-73
2023/07/06 11:31:36;;;;;;;25.20;13.88;;;;;;;;;;4781291;30;20474;-73
2023/07/06 11:34:22;;;;;;;20.25;13.05;;;;;;;;;;4743589;30;20067;-77
2023/07/06 11:37:05;;;;;;;21.02;11.05;;;;;;;;;;4742544;30;20576;-74
2023/07/06 11:39:49;;;;;;;16.35;7.82;;;;;;;;;;4756595;30;20071;-73
2023/07/06 11:42:28;;;;;;;14.50;5.50;;;;;;;;;;4764310;30;20066;-74
2023/07/06 11:45:10;;;;;;;6.55;4.13;;;;;;;;;;4780393;30;20051;-74
2023/07/06 11:48:14;;;;;;;10.13;3.88;;;;;;;;;;4765019;30;20523;-74
2023/07/06 11:50:46;;;;;;;3.42;2.50;;;;;;;;;;4780474;30;20054;-73
2023/07/06 11:53:29;;;;;;;4.25;2.50;;;;;;;;;;4780659;30;20063;-73
2023/07/06 11:56:18;;;;;;;6.78;2.63;;;;;;;;;;4764373;30;20055;-73
2023/07/06 11:59:01;;;;;;;4.60;2.97;;;;;;;;;;4780881;30;20051;-73
2023/07/06 12:01:45;;;;;;;7.47;2.70;;;;;;;;;;4780871;30;20052;-73
2023/07/06 12:04:20;;;;;;;6.53;2.80;;;;;;;;;;4780229;30;20531;-73
2023/07/06 12:06:53;;;;;;;9.20;3.08;;;;;;;;;;4780926;30;20055;-74
2023/07/06 12:09:25;;;;;;;11.43;4.15;;;;;;;;;;4781323;30;20074;-73
2023/07/06 12:12:06;;;;;;;8.25;2.97;;;;;;;;;;4780512;30;20053;-73
2023/07/06 12:14:36;;;;;;;4.78;3.08;;;;;;;;;;4780070;30;20074;-74
2023/07/06 12:17:11;;;;;;;8.55;4.05;;;;;;;;;;4780640;30;20431;-74
2023/07/06 12:19:42;;;;;;;;;;;;;;;;;;4781123;30;20055;-74
2023/07/06 12:22:17;;;;;;;6.38;2.65;;;;;;;;;;4780815;30;19925;-74
2023/07/06 12:24:47;;;;;;;4.53;2.63;;;;;;;;;;4781021;29;20055;-74
2023/07/06 12:27:19;;;;;;;7.95;2.45;;;;;;;;;;4780282;29;20059;-73
2023/07/06 12:30:03;;;;;;;6.38;2.88;;;;;;;;;;4780393;30;20060;-74
2023/07/06 12:32:34;;;;;;;6.88;2.33;;;;;;;;;;4780305;30;20060;-74
2023/07/06 12:35:08;;;;;;;5.10;2.42;;;;;;;;;;4764522;30;20062;-74
2023/07/06 12:37:44;;;;;;;4.18;2.38;;;;;;;;;;4780475;30;20063;-75
2023/07/06 12:40:23;;;;;;;5.88;2.88;;;;;;;;;;4780739;30;20417;-75
2023/07/06 12:42:54;;;;;;;4.93;2.25;;;;;;;;;;4780571;30;20062;-74
2023/07/06 12:45:26;;;;;;;8.98;2.80;;;;;;;;;;4779937;30;20051;-73
2023/07/06 12:48:00;;;;;;;4.32;2.53;;;;;;;;;;4779620;29;20055;-75
2023/07/06 12:50:41;;;;;;;6.53;2.58;;;;;;;;;;4779398;30;20051;-73
2023/07/06 12:53:22;;;;;;;11.82;3.33;;;;;;;;;;4780645;30;20055;-74
2023/07/06 12:56:00;;;;;;;7.35;2.70;;;;;;;;;;4780142;30;20058;-77
2023/07/06 12:58:36;;;;;;;4.60;2.15;;;;;;;;;;4780565;30;20059;-74
2023/07/06 13:01:17;;;;;;;4.53;2.38;;;;;;;;;;4779963;30;20062;-75
2023/07/06 13:04:01;;;;;;;8.50;2.30;;;;;;;;;;4763931;30;20055;-75
2023/07/06 13:06:38;;;;;;;16.67;3.20;;;;;;;;;;4779613;30;20047;-75
2023/07/06 13:09:31;;;;;;;5.50;2.80;;;;;;;;;;4779984;30;20416;-77
2023/07/06 13:12:09;;;;;;;4.28;2.40;;;;;;;;;;4780043;30;20051;-74
2023/07/06 13:14:41;;;;;;;6.63;2.50;;;;;;;;;;4779954;30;20047;-74
2023/07/06 13:17:17;;;;;;;9.25;2.35;;;;;;;;;;4779620;30;20165;-74
2023/07/06 13:19:48;;;;;;;4.13;2.13;;;;;;;;;;4779664;30;20058;-75
2023/07/06 13:22:20;;;;;;;8.57;2.30;;;;;;;;;;4764421;30;20066;-75
2023/07/06 13:24:51;;;;;;;7.72;2.78;;;;;;;;;;4791991;29;20511;-73
2023/07/06 13:27:23;;;;;;;5.50;2.17;;;;;;;;;;4797503;29;20055;-74
2023/07/06 13:29:54;;;;;;;29.88;3.53;;;;;;;;;;4798289;29;20046;-75
2023/07/06 13:32:26;;;;;;;5.80;2.00;;;;;;;;;;4797886;29;20062;-74
2023/07/06 13:34:56;;;;;;;4.28;1.95;;;;;;;;;;4797959;29;20538;-74
2023/07/06 13:37:30;;;;;;;4.93;1.90;;;;;;;;;;4781795;29;20492;-73
2023/07/06 13:40:06;;;;;;;5.82;2.50;;;;;;;;;;4797233;29;20416;-73
2023/07/06 13:42:40;;;;;;;6.85;2.55;;;;;;;;;;4797990;29;20051;-74
2023/07/06 13:45:25;;;;;;;21.05;4.00;;;;;;;;;;4797972;29;20065;-75
2023/07/06 13:47:56;;;;;;;6.25;2.67;;;;;;;;;;4781287;29;20419;-74
2023/07/06 13:50:27;;;;;;;4.60;2.45;;;;;;;;;;4780850;29;20059;-74
2023/07/06 13:52:58;;;;;;;20.77;3.65;;;;;;;;;;4797544;29;20054;-73
2023/07/06 13:55:53;;;;;;;6.72;2.17;;;;;;;;;;4781256;29;20062;-73
2023/07/06 13:58:30;;;;;;;3.85;2.42;;;;;;;;;;4797440;29;20541;-74
2023/07/06 14:01:02;;;;;;;4.32;2.95;;;;;;;;;;4799341;29;20074;-75
2023/07/06 14:03:32;;;;;;;6.82;2.95;;;;;;;;;;4785327;29;20059;-73
2023/07/06 14:06:04;;;;;;;9.70;3.03;;;;;;;;;;4801052;29;20236;-76
2023/07/06 14:08:36;;;;;;;11.48;4.13;;;;;;;;;;4799648;29;20062;-74
2023/07/06 14:11:09;;;;;;;9.45;4.20;;;;;;;;;;4800168;29;20054;-74
2023/07/06 14:13:39;;;;;;;6.28;3.22;;;;;;;;;;4800748;29;20054;-74
2023/07/06 14:16:14;;;;;;;10.70;3.67;;;;;;;;;;4800558;29;20062;-74
2023/07/06 14:18:44;;;;;;;9.38;3.33;;;;;;;;;;4799898;29;20092;-74
2023/07/06 14:21:24;;;;;;;7.38;3.42;;;;;;;;;;4800674;29;20058;-75
2023/07/06 14:23:54;;;;;;;10.27;3.80;;;;;;;;;;4800467;29;20542;-74
2023/07/06 14:26:25;;;;;;;15.95;3.53;;;;;;;;;;4784580;29;20654;-74
2023/07/06 14:28:56;;;;;;;7.07;3.33;;;;;;;;;;4800448;29;20055;-75
2023/07/06 14:31:30;;;;;;;6.28;3.03;;;;;;;;;;4800954;29;20518;-74
2023/07/06 14:34:02;;;;;;;8.93;3.50;;;;;;;;;;4800293;29;20508;-74
2023/07/06 14:36:32;;;;;;;11.43;3.90;;;;;;;;;;4801238;29;20507;-73
2023/07/06 14:39:03;;;;;;;10.55;3.38;;;;;;;;;;4784956;29;20077;-76
2023/07/06 14:41:34;;;;;;;6.15;2.80;;;;;;;;;;4800272;29;20054;-74
2023/07/06 14:44:05;;;;;;;8.60;3.45;;;;;;;;;;4784526;29;20427;-74
2023/07/06 14:46:35;;;;;;;13.23;3.55;;;;;;;;;;4800407;29;20055;-74
2023/07/06 14:49:05;;;;;;;5.80;2.63;;;;;;;;;;4800446;29;20618;-73
2023/07/06 14:51:36;;;;;;;8.80;3.25;;;;;;;;;;4800326;29;20057;-76
2023/07/06 14:54:07;;;;;;;8.85;3.40;;;;;;;;;;4800693;29;20061;-74
2023/07/06 14:56:38;;;;;;;9.52;3.42;;;;;;;;;;4800396;29;20047;-73
2023/07/06 14:59:08;;;;;;;11.60;3.88;;;;;;;;;;4799906;29;20046;-74
2023/07/06 15:01:39;;;;;;;10.95;3.80;;;;;;;;;;4800109;29;20525;-74
2023/07/06 15:04:11;;;;;;;14.45;4.32;;;;;;;;;;4800344;29;20054;-74
2023/07/06 15:06:42;;;;;;;10.65;3.38;;;;;;;;;;4800109;29;20073;-73
2023/07/06 15:09:13;;;;;;;17.20;3.65;;;;;;;;;;4800505;29;20062;-74
2023/07/06 15:11:43;;;;;;;7.45;2.83;;;;;;;;;;4798469;29;20503;-73
2023/07/06 15:14:14;;;;;;;11.15;3.67;;;;;;;;;;4799839;29;20412;-74
2023/07/06 15:16:45;;;;;;;9.38;2.95;;;;;;;;;;4799290;29;20062;-74
2023/07/06 15:19:16;;;;;;;9.15;3.22;;;;;;;;;;4800196;29;20065;-73
2023/07/06 15:21:46;;;;;;;7.15;3.13;;;;;;;;;;4799465;29;20059;-74
2023/07/06 15:24:16;;;;;;;7.22;3.75;;;;;;;;;;4799517;29;20383;-74
2023/07/06 15:26:47;;;;;;;5.93;2.83;;;;;;;;;;4799343;29;20054;-74
2023/07/06 15:29:19;;;;;;;8.63;3.05;;;;;;;;;;4783828;29;20042;-74